sensor_id;sensor_type;location;lat;lon;timestamp;P1;durP1;ratioP1;P2;durP2;ratioP2
43807;SDS011;29438;50.664;10.098;2022-09-09T00:03:57;3.83;;;0.60;;
43807;SDS011;29438;50.664;10.098;2022-09-09T00:06:45;2.92;;;0.70;;
43807;SDS011;29438;50.664;10.098;2022-09-09T00:09:22;1.63;;;0.70;;
43807;SDS011;29438;50.664;10.098;2022-09-09T00:11:52;3.17;;;0.70;;
43807;SDS011;29438;50.664;10.098;2022-09-09T00:14:36;1.92;;;0.80;;
43807;SDS011;29438;50.664;10.098;2022-09-09T00:22:39;2.55;;;0.70;;
43807;SDS011;29438;50.664;10.098;2022-09-09T00:25:10;1.88;;;0.60;;
43807;SDS011;29438;50.664;10.098;2022-09-09T00:30:17;3.30;;;0.50;;
43807;SDS011;29438;50.664;10.098;2022-09-09T00:32:59;3.17;;;0.65;;
43807;SDS011;29438;50.664;10.098;2022-09-09T00:35:34;1.40;;;0.50;;
43807;SDS011;29438;50.664;10.098;2022-09-09T00:38:10;2.70;;;0.40;;
43807;SDS011;29438;50.664;10.098;2022-09-09T00:40:50;1.90;;;0.45;;
43807;SDS011;29438;50.664;10.098;2022-09-09T00:43:31;2.20;;;0.40;;
43807;SDS011;29438;50.664;10.098;2022-09-09T00:49:04;3.25;;;0.50;;
43807;SDS011;29438;50.664;10.098;2022-09-09T00:51:52;1.83;;;0.38;;
43807;SDS011;29438;50.664;10.098;2022-09-09T00:57:31;1.70;;;0.38;;
43807;SDS011;29438;50.664;10.098;2022-09-09T01:00:18;1.95;;;0.38;;
43807;SDS011;29438;50.664;10.098;2022-09-09T01:16:54;2.67;;;0.50;;
43807;SDS011;29438;50.664;10.098;2022-09-09T01:19:27;2.55;;;0.68;;
43807;SDS011;29438;50.664;10.098;2022-09-09T01:22:07;2.90;;;0.60;;
43807;SDS011;29438;50.664;10.098;2022-09-09T01:27:51;2.63;;;0.47;;
43807;SDS011;29438;50.664;10.098;2022-09-09T01:30:20;1.92;;;0.60;;
43807;SDS011;29438;50.664;10.098;2022-09-09T01:32:48;2.25;;;0.50;;
43807;SDS011;29438;50.664;10.098;2022-09-09T01:37:56;2.15;;;0.65;;
43807;SDS011;29438;50.664;10.098;2022-09-09T01:40:22;3.25;;;0.50;;
43807;SDS011;29438;50.664;10.098;2022-09-09T01:42:48;2.65;;;0.70;;
43807;SDS011;29438;50.664;10.098;2022-09-09T01:45:14;2.10;;;0.55;;
43807;SDS011;29438;50.664;10.098;2022-09-09T01:47:40;2.50;;;0.80;;
43807;SDS011;29438;50.664;10.098;2022-09-09T01:50:07;2.22;;;0.70;;
43807;SDS011;29438;50.664;10.098;2022-09-09T01:52:36;3.40;;;0.60;;
43807;SDS011;29438;50.664;10.098;2022-09-09T01:55:02;4.53;;;0.90;;
43807;SDS011;29438;50.664;10.098;2022-09-09T02:00:36;2.97;;;0.70;;
43807;SDS011;29438;50.664;10.098;2022-09-09T02:03:08;5.50;;;0.90;;
43807;SDS011;29438;50.664;10.098;2022-09-09T02:05:59;4.38;;;0.90;;
43807;SDS011;29438;50.664;10.098;2022-09-09T02:08:36;1.88;;;0.70;;
43807;SDS011;29438;50.664;10.098;2022-09-09T02:11:12;3.20;;;1.00;;
43807;SDS011;29438;50.664;10.098;2022-09-09T02:13:40;1.58;;;0.77;;
43807;SDS011;29438;50.664;10.098;2022-09-09T02:16:10;2.13;;;0.70;;
43807;SDS011;29438;50.664;10.098;2022-09-09T02:18:40;2.10;;;0.88;;
43807;SDS011;29438;50.664;10.098;2022-09-09T02:21:11;2.88;;;0.80;;
43807;SDS011;29438;50.664;10.098;2022-09-09T02:23:39;3.42;;;0.70;;
43807;SDS011;29438;50.664;10.098;2022-09-09T02:26:07;3.92;;;0.80;;
43807;SDS011;29438;50.664;10.098;2022-09-09T02:28:36;2.03;;;0.70;;
43807;SDS011;29438;50.664;10.098;2022-09-09T02:31:03;3.20;;;0.88;;
43807;SDS011;29438;50.664;10.098;2022-09-09T02:33:32;3.38;;;0.70;;
43807;SDS011;29438;50.664;10.098;2022-09-09T02:36:02;4.00;;;0.70;;
43807;SDS011;29438;50.664;10.098;2022-09-09T02:38:32;3.72;;;0.70;;
43807;SDS011;29438;50.664;10.098;2022-09-09T02:41:02;2.88;;;0.77;;
43807;SDS011;29438;50.664;10.098;2022-09-09T02:43:35;2.78;;;0.85;;
43807;SDS011;29438;50.664;10.098;2022-09-09T02:46:03;2.03;;;0.70;;
43807;SDS011;29438;50.664;10.098;2022-09-09T02:56:39;2.30;;;0.70;;
43807;SDS011;29438;50.664;10.098;2022-09-09T02:59:08;1.65;;;0.50;;
43807;SDS011;29438;50.664;10.098;2022-09-09T03:01:35;4.50;;;0.90;;
43807;SDS011;29438;50.664;10.098;2022-09-09T03:04:01;1.52;;;0.63;;
43807;SDS011;29438;50.664;10.098;2022-09-09T03:06:30;2.53;;;0.70;;
43807;SDS011;29438;50.664;10.098;2022-09-09T03:08:55;4.20;;;0.82;;
43807;SDS011;29438;50.664;10.098;2022-09-09T03:11:25;4.05;;;0.70;;
43807;SDS011;29438;50.664;10.098;2022-09-09T03:13:52;3.45;;;0.85;;
43807;SDS011;29438;50.664;10.098;2022-09-09T03:16:18;3.25;;;0.70;;
43807;SDS011;29438;50.664;10.098;2022-09-09T03:18:43;3.17;;;1.27;;
43807;SDS011;29438;50.664;10.098;2022-09-09T03:21:10;2.15;;;0.77;;
43807;SDS011;29438;50.664;10.098;2022-09-09T03:23:36;4.00;;;0.73;;
43807;SDS011;29438;50.664;10.098;2022-09-09T03:26:02;4.43;;;0.93;;
43807;SDS011;29438;50.664;10.098;2022-09-09T03:28:27;5.28;;;0.98;;
43807;SDS011;29438;50.664;10.098;2022-09-09T03:31:02;3.30;;;0.80;;
43807;SDS011;29438;50.664;10.098;2022-09-09T03:33:30;3.90;;;1.20;;
43807;SDS011;29438;50.664;10.098;2022-09-09T03:35:56;2.88;;;0.98;;
43807;SDS011;29438;50.664;10.098;2022-09-09T03:38:23;3.63;;;1.00;;
43807;SDS011;29438;50.664;10.098;2022-09-09T03:40:50;3.88;;;1.10;;
43807;SDS011;29438;50.664;10.098;2022-09-09T03:43:25;5.50;;;1.00;;
43807;SDS011;29438;50.664;10.098;2022-09-09T03:45:52;5.15;;;1.00;;
43807;SDS011;29438;50.664;10.098;2022-09-09T03:48:19;4.40;;;0.85;;
43807;SDS011;29438;50.664;10.098;2022-09-09T03:50:51;2.85;;;1.05;;
43807;SDS011;29438;50.664;10.098;2022-09-09T03:53:19;4.28;;;1.10;;
43807;SDS011;29438;50.664;10.098;2022-09-09T03:55:46;3.15;;;0.90;;
43807;SDS011;29438;50.664;10.098;2022-09-09T03:58:14;2.75;;;0.80;;
43807;SDS011;29438;50.664;10.098;2022-09-09T04:00:40;3.85;;;0.95;;
43807;SDS011;29438;50.664;10.098;2022-09-09T04:03:08;3.08;;;0.82;;
43807;SDS011;29438;50.664;10.098;2022-09-09T04:05:34;4.07;;;1.00;;
43807;SDS011;29438;50.664;10.098;2022-09-09T04:08:04;3.63;;;0.93;;
43807;SDS011;29438;50.664;10.098;2022-09-09T04:10:30;2.35;;;0.95;;
43807;SDS011;29438;50.664;10.098;2022-09-09T04:12:56;3.05;;;0.70;;
43807;SDS011;29438;50.664;10.098;2022-09-09T04:15:22;3.17;;;0.60;;
43807;SDS011;29438;50.664;10.098;2022-09-09T04:17:47;4.88;;;0.98;;
43807;SDS011;29438;50.664;10.098;2022-09-09T04:20:13;2.50;;;0.98;;
43807;SDS011;29438;50.664;10.098;2022-09-09T04:22:38;4.78;;;0.88;;
43807;SDS011;29438;50.664;10.098;2022-09-09T04:25:04;2.72;;;0.90;;
43807;SDS011;29438;50.664;10.098;2022-09-09T04:27:31;3.03;;;0.88;;
43807;SDS011;29438;50.664;10.098;2022-09-09T04:29:56;2.92;;;0.93;;
43807;SDS011;29438;50.664;10.098;2022-09-09T04:32:22;3.40;;;1.15;;
43807;SDS011;29438;50.664;10.098;2022-09-09T04:34:48;4.60;;;1.20;;
43807;SDS011;29438;50.664;10.098;2022-09-09T04:37:14;3.88;;;1.30;;
43807;SDS011;29438;50.664;10.098;2022-09-09T04:39:39;5.38;;;1.38;;
43807;SDS011;29438;50.664;10.098;2022-09-09T04:42:05;5.65;;;1.30;;
43807;SDS011;29438;50.664;10.098;2022-09-09T04:44:30;2.40;;;0.90;;
43807;SDS011;29438;50.664;10.098;2022-09-09T04:46:56;3.83;;;1.10;;
43807;SDS011;29438;50.664;10.098;2022-09-09T04:49:21;3.95;;;1.05;;
43807;SDS011;29438;50.664;10.098;2022-09-09T04:51:48;4.18;;;1.27;;
43807;SDS011;29438;50.664;10.098;2022-09-09T04:54:14;3.28;;;1.30;;
43807;SDS011;29438;50.664;10.098;2022-09-09T04:56:40;6.30;;;1.45;;
43807;SDS011;29438;50.664;10.098;2022-09-09T04:59:07;5.43;;;1.40;;
43807;SDS011;29438;50.664;10.098;2022-09-09T05:01:32;4.38;;;1.20;;
43807;SDS011;29438;50.664;10.098;2022-09-09T05:03:59;2.65;;;1.40;;
43807;SDS011;29438;50.664;10.098;2022-09-09T05:06:24;3.03;;;1.10;;
43807;SDS011;29438;50.664;10.098;2022-09-09T05:08:50;4.35;;;1.10;;
43807;SDS011;29438;50.664;10.098;2022-09-09T05:11:22;4.22;;;1.50;;
43807;SDS011;29438;50.664;10.098;2022-09-09T05:13:49;4.40;;;1.70;;
43807;SDS011;29438;50.664;10.098;2022-09-09T05:16:16;5.60;;;2.05;;
43807;SDS011;29438;50.664;10.098;2022-09-09T05:18:43;4.53;;;2.10;;
43807;SDS011;29438;50.664;10.098;2022-09-09T05:21:10;4.18;;;2.15;;
43807;SDS011;29438;50.664;10.098;2022-09-09T05:23:36;6.13;;;2.35;;
43807;SDS011;29438;50.664;10.098;2022-09-09T05:26:03;5.72;;;2.20;;
43807;SDS011;29438;50.664;10.098;2022-09-09T05:28:29;6.80;;;2.67;;
43807;SDS011;29438;50.664;10.098;2022-09-09T05:30:58;6.57;;;2.40;;
43807;SDS011;29438;50.664;10.098;2022-09-09T05:33:25;4.78;;;2.25;;
43807;SDS011;29438;50.664;10.098;2022-09-09T05:35:58;5.72;;;2.40;;
43807;SDS011;29438;50.664;10.098;2022-09-09T05:38:29;4.05;;;2.42;;
43807;SDS011;29438;50.664;10.098;2022-09-09T05:40:55;5.30;;;2.35;;
43807;SDS011;29438;50.664;10.098;2022-09-09T05:43:22;3.20;;;2.10;;
43807;SDS011;29438;50.664;10.098;2022-09-09T05:45:58;5.85;;;2.40;;
43807;SDS011;29438;50.664;10.098;2022-09-09T05:48:27;4.53;;;2.50;;
43807;SDS011;29438;50.664;10.098;2022-09-09T05:50:53;4.45;;;1.80;;
43807;SDS011;29438;50.664;10.098;2022-09-09T05:53:19;4.65;;;1.98;;
43807;SDS011;29438;50.664;10.098;2022-09-09T05:55:45;3.95;;;1.00;;
43807;SDS011;29438;50.664;10.098;2022-09-09T05:58:10;2.35;;;1.10;;
43807;SDS011;29438;50.664;10.098;2022-09-09T06:00:36;6.65;;;1.40;;
43807;SDS011;29438;50.664;10.098;2022-09-09T06:03:02;3.65;;;1.02;;
43807;SDS011;29438;50.664;10.098;2022-09-09T06:05:28;2.53;;;0.77;;
43807;SDS011;29438;50.664;10.098;2022-09-09T06:07:54;3.67;;;0.90;;
43807;SDS011;29438;50.664;10.098;2022-09-09T06:10:20;3.63;;;0.80;;
43807;SDS011;29438;50.664;10.098;2022-09-09T06:12:46;3.20;;;0.75;;
43807;SDS011;29438;50.664;10.098;2022-09-09T06:15:12;3.92;;;0.60;;
43807;SDS011;29438;50.664;10.098;2022-09-09T06:17:37;3.40;;;0.43;;
43807;SDS011;29438;50.664;10.098;2022-09-09T06:20:03;4.43;;;0.50;;
43807;SDS011;29438;50.664;10.098;2022-09-09T06:22:30;3.80;;;0.60;;
43807;SDS011;29438;50.664;10.098;2022-09-09T06:24:55;3.75;;;0.60;;
43807;SDS011;29438;50.664;10.098;2022-09-09T06:27:21;2.15;;;0.40;;
43807;SDS011;29438;50.664;10.098;2022-09-09T06:29:46;3.65;;;0.65;;
43807;SDS011;29438;50.664;10.098;2022-09-09T06:32:13;3.45;;;0.65;;
43807;SDS011;29438;50.664;10.098;2022-09-09T06:34:38;4.07;;;0.60;;
43807;SDS011;29438;50.664;10.098;2022-09-09T06:37:04;2.45;;;0.60;;
43807;SDS011;29438;50.664;10.098;2022-09-09T06:39:31;3.38;;;0.77;;
43807;SDS011;29438;50.664;10.098;2022-09-09T06:41:57;2.60;;;0.50;;
43807;SDS011;29438;50.664;10.098;2022-09-09T06:44:23;1.58;;;0.60;;
43807;SDS011;29438;50.664;10.098;2022-09-09T06:46:51;4.38;;;0.85;;
43807;SDS011;29438;50.664;10.098;2022-09-09T06:49:17;4.78;;;1.10;;
43807;SDS011;29438;50.664;10.098;2022-09-09T06:51:43;2.97;;;0.60;;
43807;SDS011;29438;50.664;10.098;2022-09-09T06:54:08;3.17;;;0.95;;
43807;SDS011;29438;50.664;10.098;2022-09-09T06:56:35;3.70;;;0.80;;
43807;SDS011;29438;50.664;10.098;2022-09-09T06:59:03;3.15;;;0.70;;
43807;SDS011;29438;50.664;10.098;2022-09-09T07:01:32;3.90;;;0.63;;
43807;SDS011;29438;50.664;10.098;2022-09-09T07:03:59;3.30;;;0.55;;
43807;SDS011;29438;50.664;10.098;2022-09-09T07:06:26;3.05;;;0.57;;
43807;SDS011;29438;50.664;10.098;2022-09-09T07:08:54;3.53;;;0.80;;
43807;SDS011;29438;50.664;10.098;2022-09-09T07:11:23;3.35;;;0.65;;
43807;SDS011;29438;50.664;10.098;2022-09-09T07:13:52;4.00;;;0.75;;
43807;SDS011;29438;50.664;10.098;2022-09-09T07:16:18;3.90;;;0.40;;
43807;SDS011;29438;50.664;10.098;2022-09-09T07:18:47;2.05;;;0.38;;
43807;SDS011;29438;50.664;10.098;2022-09-09T07:21:14;1.52;;;0.50;;
43807;SDS011;29438;50.664;10.098;2022-09-09T07:23:40;4.18;;;0.60;;
43807;SDS011;29438;50.664;10.098;2022-09-09T07:26:09;3.25;;;0.50;;
43807;SDS011;29438;50.664;10.098;2022-09-09T07:28:36;2.40;;;0.50;;
43807;SDS011;29438;50.664;10.098;2022-09-09T07:31:03;2.60;;;0.57;;
43807;SDS011;29438;50.664;10.098;2022-09-09T07:33:30;2.50;;;0.52;;
43807;SDS011;29438;50.664;10.098;2022-09-09T07:39:01;2.50;;;0.60;;
43807;SDS011;29438;50.664;10.098;2022-09-09T07:41:33;3.35;;;0.80;;
43807;SDS011;29438;50.664;10.098;2022-09-09T07:44:07;1.98;;;0.57;;
43807;SDS011;29438;50.664;10.098;2022-09-09T07:46:34;1.85;;;0.57;;
43807;SDS011;29438;50.664;10.098;2022-09-09T07:49:00;2.40;;;0.63;;
43807;SDS011;29438;50.664;10.098;2022-09-09T07:51:36;3.42;;;0.90;;
43807;SDS011;29438;50.664;10.098;2022-09-09T07:54:05;3.95;;;0.75;;
43807;SDS011;29438;50.664;10.098;2022-09-09T07:56:34;3.38;;;0.77;;
43807;SDS011;29438;50.664;10.098;2022-09-09T07:59:00;3.08;;;0.77;;
43807;SDS011;29438;50.664;10.098;2022-09-09T08:01:27;3.22;;;0.70;;
43807;SDS011;29438;50.664;10.098;2022-09-09T08:03:56;2.17;;;0.70;;
43807;SDS011;29438;50.664;10.098;2022-09-09T08:06:30;4.35;;;0.90;;
43807;SDS011;29438;50.664;10.098;2022-09-09T08:08:58;3.42;;;1.13;;
43807;SDS011;29438;50.664;10.098;2022-09-09T08:11:25;3.58;;;0.80;;
43807;SDS011;29438;50.664;10.098;2022-09-09T08:13:51;3.35;;;1.30;;
43807;SDS011;29438;50.664;10.098;2022-09-09T08:16:21;2.83;;;0.90;;
43807;SDS011;29438;50.664;10.098;2022-09-09T08:18:49;2.40;;;0.80;;
43807;SDS011;29438;50.664;10.098;2022-09-09T08:21:16;2.80;;;0.80;;
43807;SDS011;29438;50.664;10.098;2022-09-09T08:23:44;2.17;;;0.90;;
43807;SDS011;29438;50.664;10.098;2022-09-09T08:26:11;2.00;;;1.00;;
43807;SDS011;29438;50.664;10.098;2022-09-09T08:28:39;3.78;;;1.30;;
43807;SDS011;29438;50.664;10.098;2022-09-09T08:31:09;4.95;;;2.30;;
43807;SDS011;29438;50.664;10.098;2022-09-09T08:33:37;3.97;;;1.00;;
43807;SDS011;29438;50.664;10.098;2022-09-09T08:36:04;3.03;;;1.00;;
43807;SDS011;29438;50.664;10.098;2022-09-09T08:38:31;2.20;;;0.98;;
43807;SDS011;29438;50.664;10.098;2022-09-09T08:41:23;2.38;;;0.80;;
43807;SDS011;29438;50.664;10.098;2022-09-09T08:46:44;4.97;;;1.00;;
43807;SDS011;29438;50.664;10.098;2022-09-09T08:52:25;1.88;;;0.85;;
43807;SDS011;29438;50.664;10.098;2022-09-09T08:55:12;2.88;;;0.73;;
43807;SDS011;29438;50.664;10.098;2022-09-09T08:57:51;2.47;;;0.77;;
43807;SDS011;29438;50.664;10.098;2022-09-09T09:00:19;4.28;;;0.90;;
43807;SDS011;29438;50.664;10.098;2022-09-09T09:02:52;3.63;;;0.90;;
43807;SDS011;29438;50.664;10.098;2022-09-09T09:08:29;3.25;;;0.90;;
43807;SDS011;29438;50.664;10.098;2022-09-09T09:11:03;3.75;;;0.70;;
43807;SDS011;29438;50.664;10.098;2022-09-09T09:13:34;5.25;;;1.30;;
43807;SDS011;29438;50.664;10.098;2022-09-09T09:16:23;6.05;;;1.02;;
43807;SDS011;29438;50.664;10.098;2022-09-09T09:18:57;3.55;;;0.65;;
43807;SDS011;29438;50.664;10.098;2022-09-09T09:21:31;5.15;;;0.70;;
43807;SDS011;29438;50.664;10.098;2022-09-09T09:24:03;3.30;;;0.57;;
43807;SDS011;29438;50.664;10.098;2022-09-09T09:26:40;3.50;;;0.55;;
43807;SDS011;29438;50.664;10.098;2022-09-09T09:29:13;3.22;;;0.80;;
43807;SDS011;29438;50.664;10.098;2022-09-09T09:31:42;3.83;;;0.70;;
43807;SDS011;29438;50.664;10.098;2022-09-09T09:34:16;3.65;;;0.70;;
43807;SDS011;29438;50.664;10.098;2022-09-09T09:36:44;2.70;;;0.55;;
43807;SDS011;29438;50.664;10.098;2022-09-09T09:39:22;2.72;;;0.20;;
43807;SDS011;29438;50.664;10.098;2022-09-09T09:41:52;3.33;;;0.55;;
43807;SDS011;29438;50.664;10.098;2022-09-09T09:44:22;3.00;;;0.77;;
43807;SDS011;29438;50.664;10.098;2022-09-09T09:46:49;2.90;;;0.60;;
43807;SDS011;29438;50.664;10.098;2022-09-09T09:49:16;3.20;;;0.63;;
43807;SDS011;29438;50.664;10.098;2022-09-09T09:51:42;1.85;;;0.40;;
43807;SDS011;29438;50.664;10.098;2022-09-09T09:56:40;3.58;;;0.60;;
43807;SDS011;29438;50.664;10.098;2022-09-09T09:59:18;3.42;;;0.50;;
43807;SDS011;29438;50.664;10.098;2022-09-09T10:01:48;3.05;;;0.50;;
43807;SDS011;29438;50.664;10.098;2022-09-09T10:04:15;3.15;;;0.60;;
43807;SDS011;29438;50.664;10.098;2022-09-09T10:06:48;3.10;;;0.63;;
43807;SDS011;29438;50.664;10.098;2022-09-09T10:09:27;4.25;;;0.68;;
43807;SDS011;29438;50.664;10.098;2022-09-09T10:14:47;1.40;;;0.30;;
43807;SDS011;29438;50.664;10.098;2022-09-09T10:23:46;2.05;;;0.47;;
43807;SDS011;29438;50.664;10.098;2022-09-09T10:29:18;2.38;;;0.40;;
43807;SDS011;29438;50.664;10.098;2022-09-09T10:34:56;2.35;;;0.30;;
43807;SDS011;29438;50.664;10.098;2022-09-09T10:40:20;3.35;;;0.30;;
43807;SDS011;29438;50.664;10.098;2022-09-09T10:46:10;1.92;;;0.20;;
43807;SDS011;29438;50.664;10.098;2022-09-09T11:00:01;1.05;;;0.17;;
43807;SDS011;29438;50.664;10.098;2022-09-09T11:02:31;1.85;;;0.20;;
43807;SDS011;29438;50.664;10.098;2022-09-09T11:05:05;1.55;;;0.17;;
43807;SDS011;29438;50.664;10.098;2022-09-09T11:07:47;2.10;;;0.10;;
43807;SDS011;29438;50.664;10.098;2022-09-09T11:10:20;2.47;;;0.20;;
43807;SDS011;29438;50.664;10.098;2022-09-09T11:12:56;4.13;;;0.38;;
43807;SDS011;29438;50.664;10.098;2022-09-09T11:15:36;1.98;;;0.30;;
43807;SDS011;29438;50.664;10.098;2022-09-09T11:18:06;4.32;;;0.40;;
43807;SDS011;29438;50.664;10.098;2022-09-09T11:20:39;2.85;;;0.50;;
43807;SDS011;29438;50.664;10.098;2022-09-09T11:23:07;3.10;;;0.30;;
43807;SDS011;29438;50.664;10.098;2022-09-09T11:25:42;3.50;;;0.45;;
43807;SDS011;29438;50.664;10.098;2022-09-09T11:28:21;3.38;;;0.50;;
43807;SDS011;29438;50.664;10.098;2022-09-09T11:33:23;3.55;;;0.60;;
43807;SDS011;29438;50.664;10.098;2022-09-09T11:36:31;2.42;;;0.20;;
43807;SDS011;29438;50.664;10.098;2022-09-09T11:39:17;2.53;;;0.40;;
43807;SDS011;29438;50.664;10.098;2022-09-09T11:44:38;3.13;;;0.25;;
43807;SDS011;29438;50.664;10.098;2022-09-09T11:47:15;2.05;;;0.65;;
43807;SDS011;29438;50.664;10.098;2022-09-09T11:49:48;3.63;;;0.40;;
43807;SDS011;29438;50.664;10.098;2022-09-09T11:52:22;2.83;;;0.95;;
43807;SDS011;29438;50.664;10.098;2022-09-09T11:54:50;2.03;;;0.40;;
43807;SDS011;29438;50.664;10.098;2022-09-09T11:57:26;2.25;;;0.20;;
43807;SDS011;29438;50.664;10.098;2022-09-09T11:59:57;1.83;;;0.40;;
43807;SDS011;29438;50.664;10.098;2022-09-09T12:02:24;2.10;;;0.30;;
43807;SDS011;29438;50.664;10.098;2022-09-09T12:05:00;1.50;;;0.20;;
43807;SDS011;29438;50.664;10.098;2022-09-09T12:07:35;2.97;;;0.30;;
43807;SDS011;29438;50.664;10.098;2022-09-09T12:10:20;1.88;;;0.20;;
43807;SDS011;29438;50.664;10.098;2022-09-09T12:12:52;4.00;;;0.40;;
43807;SDS011;29438;50.664;10.098;2022-09-09T12:17:47;2.50;;;0.40;;
43807;SDS011;29438;50.664;10.098;2022-09-09T12:20:18;2.45;;;0.70;;
43807;SDS011;29438;50.664;10.098;2022-09-09T12:22:52;1.67;;;0.17;;
43807;SDS011;29438;50.664;10.098;2022-09-09T12:31:27;3.20;;;0.80;;
43807;SDS011;29438;50.664;10.098;2022-09-09T12:34:09;3.63;;;0.60;;
43807;SDS011;29438;50.664;10.098;2022-09-09T12:36:37;2.70;;;0.20;;
43807;SDS011;29438;50.664;10.098;2022-09-09T12:39:18;2.60;;;0.50;;
43807;SDS011;29438;50.664;10.098;2022-09-09T12:41:53;2.83;;;0.20;;
43807;SDS011;29438;50.664;10.098;2022-09-09T12:44:21;3.50;;;0.30;;
43807;SDS011;29438;50.664;10.098;2022-09-09T12:46:47;3.08;;;0.20;;
43807;SDS011;29438;50.664;10.098;2022-09-09T12:52:07;6.40;;;0.63;;
43807;SDS011;29438;50.664;10.098;2022-09-09T12:54:43;2.70;;;0.30;;
43807;SDS011;29438;50.664;10.098;2022-09-09T12:57:11;4.28;;;0.52;;
43807;SDS011;29438;50.664;10.098;2022-09-09T12:59:39;2.67;;;0.50;;
43807;SDS011;29438;50.664;10.098;2022-09-09T13:02:11;1.98;;;0.20;;
43807;SDS011;29438;50.664;10.098;2022-09-09T13:04:49;1.48;;;0.28;;
43807;SDS011;29438;50.664;10.098;2022-09-09T13:07:16;2.25;;;0.50;;
43807;SDS011;29438;50.664;10.098;2022-09-09T13:09:43;2.75;;;0.30;;
43807;SDS011;29438;50.664;10.098;2022-09-09T13:12:13;2.72;;;0.35;;
43807;SDS011;29438;50.664;10.098;2022-09-09T13:14:48;1.85;;;0.38;;
43807;SDS011;29438;50.664;10.098;2022-09-09T13:17:17;2.10;;;0.40;;
43807;SDS011;29438;50.664;10.098;2022-09-09T13:19:48;3.03;;;0.80;;
43807;SDS011;29438;50.664;10.098;2022-09-09T13:22:20;2.03;;;0.30;;
43807;SDS011;29438;50.664;10.098;2022-09-09T13:24:58;3.65;;;0.40;;
43807;SDS011;29438;50.664;10.098;2022-09-09T13:27:50;5.65;;;2.60;;
43807;SDS011;29438;50.664;10.098;2022-09-09T13:30:28;1.42;;;0.45;;
43807;SDS011;29438;50.664;10.098;2022-09-09T13:35:46;2.05;;;0.30;;
43807;SDS011;29438;50.664;10.098;2022-09-09T13:38:15;2.67;;;0.40;;
43807;SDS011;29438;50.664;10.098;2022-09-09T13:40:51;1.95;;;0.30;;
43807;SDS011;29438;50.664;10.098;2022-09-09T13:43:22;1.95;;;0.60;;
43807;SDS011;29438;50.664;10.098;2022-09-09T13:45:57;2.20;;;0.30;;
43807;SDS011;29438;50.664;10.098;2022-09-09T13:48:24;3.03;;;0.40;;
43807;SDS011;29438;50.664;10.098;2022-09-09T13:50:57;2.22;;;0.52;;
43807;SDS011;29438;50.664;10.098;2022-09-09T13:53:29;5.50;;;1.10;;
43807;SDS011;29438;50.664;10.098;2022-09-09T13:55:55;2.53;;;0.50;;
43807;SDS011;29438;50.664;10.098;2022-09-09T13:58:22;3.85;;;1.20;;
43807;SDS011;29438;50.664;10.098;2022-09-09T14:00:49;3.05;;;0.38;;
43807;SDS011;29438;50.664;10.098;2022-09-09T14:03:15;2.30;;;0.52;;
43807;SDS011;29438;50.664;10.098;2022-09-09T14:05:41;1.45;;;0.30;;
43807;SDS011;29438;50.664;10.098;2022-09-09T14:08:07;3.78;;;1.50;;
43807;SDS011;29438;50.664;10.098;2022-09-09T14:10:45;4.65;;;1.00;;
43807;SDS011;29438;50.664;10.098;2022-09-09T14:13:10;6.45;;;1.55;;
43807;SDS011;29438;50.664;10.098;2022-09-09T14:15:37;4.15;;;0.60;;
43807;SDS011;29438;50.664;10.098;2022-09-09T14:18:02;3.08;;;0.82;;
43807;SDS011;29438;50.664;10.098;2022-09-09T14:20:28;3.90;;;1.10;;
43807;SDS011;29438;50.664;10.098;2022-09-09T14:22:53;7.90;;;4.90;;
43807;SDS011;29438;50.664;10.098;2022-09-09T14:25:19;6.55;;;1.83;;
43807;SDS011;29438;50.664;10.098;2022-09-09T14:27:44;3.55;;;1.40;;
43807;SDS011;29438;50.664;10.098;2022-09-09T14:30:11;4.75;;;1.98;;
43807;SDS011;29438;50.664;10.098;2022-09-09T14:32:37;7.30;;;2.00;;
43807;SDS011;29438;50.664;10.098;2022-09-09T14:35:02;3.28;;;1.58;;
43807;SDS011;29438;50.664;10.098;2022-09-09T14:37:28;3.17;;;1.05;;
43807;SDS011;29438;50.664;10.098;2022-09-09T14:39:55;2.00;;;0.65;;
43807;SDS011;29438;50.664;10.098;2022-09-09T14:42:21;5.05;;;1.10;;
43807;SDS011;29438;50.664;10.098;2022-09-09T14:44:47;2.15;;;0.50;;
43807;SDS011;29438;50.664;10.098;2022-09-09T14:47:12;2.28;;;0.55;;
43807;SDS011;29438;50.664;10.098;2022-09-09T14:49:38;2.55;;;0.40;;
43807;SDS011;29438;50.664;10.098;2022-09-09T14:52:04;2.17;;;0.32;;
43807;SDS011;29438;50.664;10.098;2022-09-09T14:54:30;2.03;;;0.50;;
43807;SDS011;29438;50.664;10.098;2022-09-09T14:56:56;6.13;;;1.45;;
43807;SDS011;29438;50.664;10.098;2022-09-09T14:59:22;2.33;;;0.70;;
43807;SDS011;29438;50.664;10.098;2022-09-09T15:01:48;2.90;;;0.65;;
43807;SDS011;29438;50.664;10.098;2022-09-09T15:04:13;3.00;;;0.60;;
43807;SDS011;29438;50.664;10.098;2022-09-09T15:06:43;2.25;;;0.50;;
43807;SDS011;29438;50.664;10.098;2022-09-09T15:09:12;4.35;;;0.60;;
43807;SDS011;29438;50.664;10.098;2022-09-09T15:11:37;3.40;;;0.57;;
43807;SDS011;29438;50.664;10.098;2022-09-09T15:14:03;2.53;;;0.30;;
43807;SDS011;29438;50.664;10.098;2022-09-09T15:16:30;2.50;;;0.40;;
43807;SDS011;29438;50.664;10.098;2022-09-09T15:18:57;1.73;;;0.40;;
43807;SDS011;29438;50.664;10.098;2022-09-09T15:21:25;3.58;;;0.47;;
43807;SDS011;29438;50.664;10.098;2022-09-09T15:23:53;3.17;;;0.60;;
43807;SDS011;29438;50.664;10.098;2022-09-09T15:26:18;3.92;;;0.40;;
43807;SDS011;29438;50.664;10.098;2022-09-09T15:28:45;2.10;;;0.77;;
43807;SDS011;29438;50.664;10.098;2022-09-09T15:33:39;3.75;;;0.30;;
43807;SDS011;29438;50.664;10.098;2022-09-09T15:36:15;2.85;;;0.77;;
43807;SDS011;29438;50.664;10.098;2022-09-09T15:38:45;3.97;;;0.25;;
43807;SDS011;29438;50.664;10.098;2022-09-09T15:41:11;3.10;;;0.60;;
43807;SDS011;29438;50.664;10.098;2022-09-09T15:43:38;2.95;;;0.40;;
43807;SDS011;29438;50.664;10.098;2022-09-09T15:48:42;1.70;;;0.40;;
43807;SDS011;29438;50.664;10.098;2022-09-09T15:51:11;7.80;;;3.45;;
43807;SDS011;29438;50.664;10.098;2022-09-09T15:53:38;5.22;;;1.65;;
43807;SDS011;29438;50.664;10.098;2022-09-09T15:56:06;1.50;;;0.20;;
43807;SDS011;29438;50.664;10.098;2022-09-09T15:58:32;1.98;;;0.22;;
43807;SDS011;29438;50.664;10.098;2022-09-09T16:01:02;2.90;;;0.65;;
43807;SDS011;29438;50.664;10.098;2022-09-09T16:03:29;2.05;;;0.32;;
43807;SDS011;29438;50.664;10.098;2022-09-09T16:06:01;1.75;;;0.25;;
43807;SDS011;29438;50.664;10.098;2022-09-09T16:08:34;2.17;;;0.30;;
43807;SDS011;29438;50.664;10.098;2022-09-09T16:11:08;2.35;;;0.20;;
43807;SDS011;29438;50.664;10.098;2022-09-09T16:13:36;2.30;;;0.30;;
43807;SDS011;29438;50.664;10.098;2022-09-09T16:16:05;2.08;;;0.10;;
43807;SDS011;29438;50.664;10.098;2022-09-09T16:18:35;1.13;;;0.13;;
43807;SDS011;29438;50.664;10.098;2022-09-09T16:21:02;0.80;;;0.10;;
43807;SDS011;29438;50.664;10.098;2022-09-09T16:23:30;1.63;;;0.20;;
43807;SDS011;29438;50.664;10.098;2022-09-09T16:25:59;1.65;;;0.20;;
43807;SDS011;29438;50.664;10.098;2022-09-09T16:28:26;0.95;;;0.20;;
43807;SDS011;29438;50.664;10.098;2022-09-09T16:30:51;2.00;;;0.15;;
43807;SDS011;29438;50.664;10.098;2022-09-09T16:33:18;1.73;;;0.10;;
43807;SDS011;29438;50.664;10.098;2022-09-09T16:35:43;3.13;;;0.20;;
43807;SDS011;29438;50.664;10.098;2022-09-09T16:38:09;1.90;;;0.20;;
43807;SDS011;29438;50.664;10.098;2022-09-09T16:40:35;1.48;;;0.17;;
43807;SDS011;29438;50.664;10.098;2022-09-09T16:43:01;2.25;;;0.20;;
43807;SDS011;29438;50.664;10.098;2022-09-09T16:45:27;1.42;;;0.20;;
43807;SDS011;29438;50.664;10.098;2022-09-09T16:47:53;1.00;;;0.20;;